sensor_id;sensor_type;location;lat;lon;timestamp;P1;durP1;ratioP1;P2;durP2;ratioP2
11970;SDS011;6045;42.682;23.294;2023-05-29T00:01:46;6.63;;;2.93;;
11970;SDS011;6045;42.682;23.294;2023-05-29T00:04:13;3.13;;;2.40;;
11970;SDS011;6045;42.682;23.294;2023-05-29T00:06:40;4.27;;;2.20;;
11970;SDS011;6045;42.682;23.294;2023-05-29T00:09:07;2.23;;;2.00;;
11970;SDS011;6045;42.682;23.294;2023-05-29T00:11:35;6.30;;;2.97;;
11970;SDS011;6045;42.682;23.294;2023-05-29T00:14:02;3.63;;;2.20;;
11970;SDS011;6045;42.682;23.294;2023-05-29T00:16:30;3.53;;;2.30;;
11970;SDS011;6045;42.682;23.294;2023-05-29T00:18:56;3.08;;;2.78;;
11970;SDS011;6045;42.682;23.294;2023-05-29T00:21:23;3.40;;;2.57;;
11970;SDS011;6045;42.682;23.294;2023-05-29T00:23:50;3.03;;;2.13;;
11970;SDS011;6045;42.682;23.294;2023-05-29T00:26:17;4.57;;;2.70;;
11970;SDS011;6045;42.682;23.294;2023-05-29T00:28:45;3.30;;;2.83;;
11970;SDS011;6045;42.682;23.294;2023-05-29T00:31:11;4.80;;;2.40;;
11970;SDS011;6045;42.682;23.294;2023-05-29T00:33:38;3.20;;;2.53;;
11970;SDS011;6045;42.682;23.294;2023-05-29T00:36:05;3.70;;;2.20;;
11970;SDS011;6045;42.682;23.294;2023-05-29T00:38:33;4.13;;;2.50;;
11970;SDS011;6045;42.682;23.294;2023-05-29T00:40:59;4.60;;;2.23;;
11970;SDS011;6045;42.682;23.294;2023-05-29T00:43:27;3.77;;;2.60;;
11970;SDS011;6045;42.682;23.294;2023-05-29T00:45:55;6.10;;;3.03;;
11970;SDS011;6045;42.682;23.294;2023-05-29T00:48:23;3.77;;;2.77;;
11970;SDS011;6045;42.682;23.294;2023-05-29T00:50:50;3.33;;;2.73;;
11970;SDS011;6045;42.682;23.294;2023-05-29T00:53:17;3.80;;;3.13;;
11970;SDS011;6045;42.682;23.294;2023-05-29T00:55:44;4.77;;;2.97;;
11970;SDS011;6045;42.682;23.294;2023-05-29T00:58:11;3.20;;;2.90;;
11970;SDS011;6045;42.682;23.294;2023-05-29T01:00:38;2.73;;;2.53;;
11970;SDS011;6045;42.682;23.294;2023-05-29T01:03:07;4.20;;;2.53;;
11970;SDS011;6045;42.682;23.294;2023-05-29T01:05:34;5.07;;;2.90;;
11970;SDS011;6045;42.682;23.294;2023-05-29T01:08:01;3.33;;;2.00;;
11970;SDS011;6045;42.682;23.294;2023-05-29T01:10:28;3.90;;;2.63;;
11970;SDS011;6045;42.682;23.294;2023-05-29T01:12:57;3.40;;;2.43;;
11970;SDS011;6045;42.682;23.294;2023-05-29T01:15:33;3.47;;;2.77;;
11970;SDS011;6045;42.682;23.294;2023-05-29T01:20:58;4.47;;;2.73;;
11970;SDS011;6045;42.682;23.294;2023-05-29T01:26:23;5.80;;;2.93;;
11970;SDS011;6045;42.682;23.294;2023-05-29T01:29:15;5.10;;;2.63;;
11970;SDS011;6045;42.682;23.294;2023-05-29T01:31:45;3.13;;;2.40;;
11970;SDS011;6045;42.682;23.294;2023-05-29T01:34:12;4.63;;;3.00;;
11970;SDS011;6045;42.682;23.294;2023-05-29T01:36:39;4.37;;;2.73;;
11970;SDS011;6045;42.682;23.294;2023-05-29T01:39:06;4.17;;;2.47;;
11970;SDS011;6045;42.682;23.294;2023-05-29T01:41:34;4.73;;;2.90;;
11970;SDS011;6045;42.682;23.294;2023-05-29T01:44:04;2.57;;;1.93;;
11970;SDS011;6045;42.682;23.294;2023-05-29T01:46:35;3.20;;;2.63;;
11970;SDS011;6045;42.682;23.294;2023-05-29T01:49:03;3.20;;;2.53;;
11970;SDS011;6045;42.682;23.294;2023-05-29T01:51:31;3.13;;;2.77;;
11970;SDS011;6045;42.682;23.294;2023-05-29T01:53:58;3.13;;;2.73;;
11970;SDS011;6045;42.682;23.294;2023-05-29T01:56:25;5.47;;;3.00;;
11970;SDS011;6045;42.682;23.294;2023-05-29T01:58:53;4.83;;;3.20;;
11970;SDS011;6045;42.682;23.294;2023-05-29T02:01:21;6.53;;;2.97;;
11970;SDS011;6045;42.682;23.294;2023-05-29T02:03:49;2.83;;;2.33;;
11970;SDS011;6045;42.682;23.294;2023-05-29T02:06:17;4.17;;;2.97;;
11970;SDS011;6045;42.682;23.294;2023-05-29T02:08:44;3.73;;;2.90;;
11970;SDS011;6045;42.682;23.294;2023-05-29T02:11:11;4.17;;;3.40;;
11970;SDS011;6045;42.682;23.294;2023-05-29T02:13:38;6.10;;;3.33;;
11970;SDS011;6045;42.682;23.294;2023-05-29T02:16:05;4.77;;;2.80;;
11970;SDS011;6045;42.682;23.294;2023-05-29T02:18:32;3.23;;;2.30;;
11970;SDS011;6045;42.682;23.294;2023-05-29T02:21:01;5.60;;;3.23;;
11970;SDS011;6045;42.682;23.294;2023-05-29T02:23:28;5.17;;;2.73;;
11970;SDS011;6045;42.682;23.294;2023-05-29T02:25:55;3.97;;;3.23;;
11970;SDS011;6045;42.682;23.294;2023-05-29T02:28:21;5.83;;;3.50;;
11970;SDS011;6045;42.682;23.294;2023-05-29T02:30:48;4.50;;;3.03;;
11970;SDS011;6045;42.682;23.294;2023-05-29T02:33:15;3.03;;;2.47;;
11970;SDS011;6045;42.682;23.294;2023-05-29T02:35:42;7.40;;;3.40;;
11970;SDS011;6045;42.682;23.294;2023-05-29T02:38:10;3.93;;;3.10;;
11970;SDS011;6045;42.682;23.294;2023-05-29T02:40:37;4.07;;;3.10;;
11970;SDS011;6045;42.682;23.294;2023-05-29T02:43:04;3.93;;;3.07;;
11970;SDS011;6045;42.682;23.294;2023-05-29T02:45:32;4.53;;;2.93;;
11970;SDS011;6045;42.682;23.294;2023-05-29T02:47:58;3.07;;;2.73;;
11970;SDS011;6045;42.682;23.294;2023-05-29T02:50:25;4.43;;;2.87;;
11970;SDS011;6045;42.682;23.294;2023-05-29T02:52:53;3.97;;;2.63;;
11970;SDS011;6045;42.682;23.294;2023-05-29T02:55:21;4.20;;;2.87;;
11970;SDS011;6045;42.682;23.294;2023-05-29T02:57:48;4.97;;;3.07;;
11970;SDS011;6045;42.682;23.294;2023-05-29T03:00:18;5.67;;;3.30;;
11970;SDS011;6045;42.682;23.294;2023-05-29T03:02:45;4.97;;;3.40;;
11970;SDS011;6045;42.682;23.294;2023-05-29T03:05:12;4.50;;;2.90;;
11970;SDS011;6045;42.682;23.294;2023-05-29T03:07:39;3.23;;;2.93;;
11970;SDS011;6045;42.682;23.294;2023-05-29T03:10:07;3.90;;;3.50;;
11970;SDS011;6045;42.682;23.294;2023-05-29T03:12:36;4.60;;;3.10;;
11970;SDS011;6045;42.682;23.294;2023-05-29T03:15:05;7.13;;;3.50;;
11970;SDS011;6045;42.682;23.294;2023-05-29T03:17:32;7.07;;;3.53;;
11970;SDS011;6045;42.682;23.294;2023-05-29T03:20:01;5.60;;;3.50;;
11970;SDS011;6045;42.682;23.294;2023-05-29T03:22:31;3.93;;;2.53;;
11970;SDS011;6045;42.682;23.294;2023-05-29T03:24:57;8.23;;;3.60;;
11970;SDS011;6045;42.682;23.294;2023-05-29T03:27:24;4.80;;;3.10;;
11970;SDS011;6045;42.682;23.294;2023-05-29T03:29:52;4.53;;;3.40;;
11970;SDS011;6045;42.682;23.294;2023-05-29T03:32:19;3.37;;;2.97;;
11970;SDS011;6045;42.682;23.294;2023-05-29T03:34:46;3.70;;;2.30;;
11970;SDS011;6045;42.682;23.294;2023-05-29T03:37:13;4.37;;;2.90;;
11970;SDS011;6045;42.682;23.294;2023-05-29T03:39:40;3.30;;;2.77;;
11970;SDS011;6045;42.682;23.294;2023-05-29T03:42:07;6.20;;;4.07;;
11970;SDS011;6045;42.682;23.294;2023-05-29T03:44:34;4.55;;;3.20;;
11970;SDS011;6045;42.682;23.294;2023-05-29T03:47:02;6.65;;;3.80;;
11970;SDS011;6045;42.682;23.294;2023-05-29T03:49:29;10.87;;;4.23;;
11970;SDS011;6045;42.682;23.294;2023-05-29T03:51:55;5.97;;;4.13;;
11970;SDS011;6045;42.682;23.294;2023-05-29T03:54:23;4.80;;;3.58;;
11970;SDS011;6045;42.682;23.294;2023-05-29T03:56:49;6.65;;;4.15;;
11970;SDS011;6045;42.682;23.294;2023-05-29T03:59:16;6.28;;;3.85;;
11970;SDS011;6045;42.682;23.294;2023-05-29T04:01:43;7.97;;;3.90;;
11970;SDS011;6045;42.682;23.294;2023-05-29T04:04:11;3.97;;;3.08;;
11970;SDS011;6045;42.682;23.294;2023-05-29T04:06:38;5.75;;;3.08;;
11970;SDS011;6045;42.682;23.294;2023-05-29T04:09:05;4.50;;;3.50;;
11970;SDS011;6045;42.682;23.294;2023-05-29T04:11:33;4.30;;;2.47;;
11970;SDS011;6045;42.682;23.294;2023-05-29T04:14:00;3.88;;;3.15;;
11970;SDS011;6045;42.682;23.294;2023-05-29T04:16:27;5.50;;;3.40;;
11970;SDS011;6045;42.682;23.294;2023-05-29T04:18:54;5.72;;;3.83;;
11970;SDS011;6045;42.682;23.294;2023-05-29T04:21:23;6.22;;;3.58;;
11970;SDS011;6045;42.682;23.294;2023-05-29T04:23:50;5.40;;;2.80;;
11970;SDS011;6045;42.682;23.294;2023-05-29T04:26:19;5.63;;;3.00;;
11970;SDS011;6045;42.682;23.294;2023-05-29T04:28:50;6.47;;;4.13;;
11970;SDS011;6045;42.682;23.294;2023-05-29T04:31:22;5.68;;;3.88;;
11970;SDS011;6045;42.682;23.294;2023-05-29T04:33:52;5.82;;;4.05;;
11970;SDS011;6045;42.682;23.294;2023-05-29T04:36:23;6.88;;;3.60;;
11970;SDS011;6045;42.682;23.294;2023-05-29T04:38:51;7.43;;;3.85;;
11970;SDS011;6045;42.682;23.294;2023-05-29T04:41:18;4.15;;;3.05;;
11970;SDS011;6045;42.682;23.294;2023-05-29T04:43:48;7.50;;;3.40;;
11970;SDS011;6045;42.682;23.294;2023-05-29T04:49:53;24.55;;;13.90;;
11970;SDS011;6045;42.682;23.294;2023-05-29T04:52:38;8.93;;;6.72;;
11970;SDS011;6045;42.682;23.294;2023-05-29T04:55:05;10.43;;;6.95;;
11970;SDS011;6045;42.682;23.294;2023-05-29T04:57:32;11.43;;;6.00;;
11970;SDS011;6045;42.682;23.294;2023-05-29T04:59:59;7.00;;;4.63;;
11970;SDS011;6045;42.682;23.294;2023-05-29T05:02:30;6.38;;;4.57;;
11970;SDS011;6045;42.682;23.294;2023-05-29T05:04:57;8.82;;;4.03;;
11970;SDS011;6045;42.682;23.294;2023-05-29T05:07:24;5.60;;;3.80;;
11970;SDS011;6045;42.682;23.294;2023-05-29T05:09:52;6.00;;;4.15;;
11970;SDS011;6045;42.682;23.294;2023-05-29T05:12:19;5.28;;;3.67;;
11970;SDS011;6045;42.682;23.294;2023-05-29T05:14:46;6.18;;;3.92;;
11970;SDS011;6045;42.682;23.294;2023-05-29T05:17:13;6.53;;;4.55;;
11970;SDS011;6045;42.682;23.294;2023-05-29T05:19:39;8.07;;;4.53;;
11970;SDS011;6045;42.682;23.294;2023-05-29T05:22:06;7.75;;;4.82;;
11970;SDS011;6045;42.682;23.294;2023-05-29T05:24:33;8.40;;;4.47;;
11970;SDS011;6045;42.682;23.294;2023-05-29T05:27:01;10.50;;;5.15;;
11970;SDS011;6045;42.682;23.294;2023-05-29T05:29:30;7.13;;;4.47;;
11970;SDS011;6045;42.682;23.294;2023-05-29T05:31:57;9.20;;;4.93;;
11970;SDS011;6045;42.682;23.294;2023-05-29T05:34:23;8.13;;;4.75;;
11970;SDS011;6045;42.682;23.294;2023-05-29T05:36:50;8.68;;;5.15;;
11970;SDS011;6045;42.682;23.294;2023-05-29T05:39:17;7.30;;;4.80;;
11970;SDS011;6045;42.682;23.294;2023-05-29T05:41:44;5.18;;;4.38;;
11970;SDS011;6045;42.682;23.294;2023-05-29T05:44:12;8.07;;;5.38;;
11970;SDS011;6045;42.682;23.294;2023-05-29T05:46:39;7.50;;;4.50;;
11970;SDS011;6045;42.682;23.294;2023-05-29T05:49:05;6.97;;;4.78;;
11970;SDS011;6045;42.682;23.294;2023-05-29T05:51:32;6.95;;;4.78;;
11970;SDS011;6045;42.682;23.294;2023-05-29T05:54:00;7.18;;;4.65;;
11970;SDS011;6045;42.682;23.294;2023-05-29T05:56:27;6.13;;;4.30;;
11970;SDS011;6045;42.682;23.294;2023-05-29T05:58:53;5.90;;;4.13;;
11970;SDS011;6045;42.682;23.294;2023-05-29T06:01:22;5.70;;;3.53;;
11970;SDS011;6045;42.682;23.294;2023-05-29T06:03:48;7.30;;;4.13;;
11970;SDS011;6045;42.682;23.294;2023-05-29T06:06:15;6.22;;;3.60;;
11970;SDS011;6045;42.682;23.294;2023-05-29T06:08:44;5.45;;;4.03;;
11970;SDS011;6045;42.682;23.294;2023-05-29T06:11:15;3.85;;;3.13;;
11970;SDS011;6045;42.682;23.294;2023-05-29T06:13:42;5.32;;;3.40;;
11970;SDS011;6045;42.682;23.294;2023-05-29T06:16:09;5.72;;;3.50;;
11970;SDS011;6045;42.682;23.294;2023-05-29T06:18:37;7.65;;;3.85;;
11970;SDS011;6045;42.682;23.294;2023-05-29T06:21:05;5.95;;;3.33;;
11970;SDS011;6045;42.682;23.294;2023-05-29T06:23:32;5.57;;;4.72;;
11970;SDS011;6045;42.682;23.294;2023-05-29T06:26:01;8.63;;;4.13;;
11970;SDS011;6045;42.682;23.294;2023-05-29T06:28:28;5.50;;;3.60;;
11970;SDS011;6045;42.682;23.294;2023-05-29T06:30:55;3.85;;;3.00;;
11970;SDS011;6045;42.682;23.294;2023-05-29T06:33:22;3.33;;;2.78;;
11970;SDS011;6045;42.682;23.294;2023-05-29T06:35:50;4.57;;;3.00;;
11970;SDS011;6045;42.682;23.294;2023-05-29T06:38:17;9.13;;;3.90;;
11970;SDS011;6045;42.682;23.294;2023-05-29T06:40:44;3.95;;;2.80;;
11970;SDS011;6045;42.682;23.294;2023-05-29T06:43:11;5.38;;;3.13;;
11970;SDS011;6045;42.682;23.294;2023-05-29T06:45:37;3.53;;;2.90;;
11970;SDS011;6045;42.682;23.294;2023-05-29T06:48:04;6.07;;;3.65;;
11970;SDS011;6045;42.682;23.294;2023-05-29T06:50:31;3.50;;;2.75;;
11970;SDS011;6045;42.682;23.294;2023-05-29T06:53:00;2.45;;;2.13;;
11970;SDS011;6045;42.682;23.294;2023-05-29T06:55:27;2.10;;;1.80;;
11970;SDS011;6045;42.682;23.294;2023-05-29T06:57:53;3.00;;;2.40;;
11970;SDS011;6045;42.682;23.294;2023-05-29T07:00:20;3.65;;;2.38;;
11970;SDS011;6045;42.682;23.294;2023-05-29T07:02:48;4.70;;;2.40;;
11970;SDS011;6045;42.682;23.294;2023-05-29T07:05:16;4.40;;;2.00;;
11970;SDS011;6045;42.682;23.294;2023-05-29T07:07:43;4.10;;;1.83;;
11970;SDS011;6045;42.682;23.294;2023-05-29T07:10:11;2.45;;;1.60;;
11970;SDS011;6045;42.682;23.294;2023-05-29T07:12:38;3.55;;;2.03;;
11970;SDS011;6045;42.682;23.294;2023-05-29T07:15:05;2.10;;;1.90;;
11970;SDS011;6045;42.682;23.294;2023-05-29T07:17:32;3.25;;;1.77;;
11970;SDS011;6045;42.682;23.294;2023-05-29T07:19:59;1.88;;;1.58;;
11970;SDS011;6045;42.682;23.294;2023-05-29T07:22:25;2.88;;;1.52;;
11970;SDS011;6045;42.682;23.294;2023-05-29T07:24:52;2.20;;;1.58;;
11970;SDS011;6045;42.682;23.294;2023-05-29T07:27:20;1.60;;;1.50;;
11970;SDS011;6045;42.682;23.294;2023-05-29T07:29:47;2.40;;;1.50;;
11970;SDS011;6045;42.682;23.294;2023-05-29T07:32:13;2.90;;;2.03;;
11970;SDS011;6045;42.682;23.294;2023-05-29T07:34:40;2.63;;;1.33;;
11970;SDS011;6045;42.682;23.294;2023-05-29T07:37:07;1.80;;;1.50;;
11970;SDS011;6045;42.682;23.294;2023-05-29T07:39:34;2.10;;;1.30;;
11970;SDS011;6045;42.682;23.294;2023-05-29T07:42:01;2.80;;;1.65;;
11970;SDS011;6045;42.682;23.294;2023-05-29T07:44:30;2.88;;;1.70;;
11970;SDS011;6045;42.682;23.294;2023-05-29T07:46:56;2.30;;;1.70;;
11970;SDS011;6045;42.682;23.294;2023-05-29T07:49:23;2.15;;;1.88;;
11970;SDS011;6045;42.682;23.294;2023-05-29T07:51:50;4.60;;;1.60;;
11970;SDS011;6045;42.682;23.294;2023-05-29T07:54:17;2.20;;;1.67;;
11970;SDS011;6045;42.682;23.294;2023-05-29T07:56:45;5.10;;;2.22;;
11970;SDS011;6045;42.682;23.294;2023-05-29T07:59:12;2.85;;;1.83;;
11970;SDS011;6045;42.682;23.294;2023-05-29T08:01:41;1.92;;;1.60;;
11970;SDS011;6045;42.682;23.294;2023-05-29T08:04:08;2.15;;;1.48;;
11970;SDS011;6045;42.682;23.294;2023-05-29T08:06:36;1.73;;;1.48;;
11970;SDS011;6045;42.682;23.294;2023-05-29T08:09:03;3.67;;;1.58;;
11970;SDS011;6045;42.682;23.294;2023-05-29T08:11:30;1.75;;;1.63;;
11970;SDS011;6045;42.682;23.294;2023-05-29T08:13:57;1.30;;;1.20;;
11970;SDS011;6045;42.682;23.294;2023-05-29T08:16:24;2.03;;;1.52;;
11970;SDS011;6045;42.682;23.294;2023-05-29T08:18:53;1.52;;;1.42;;
11970;SDS011;6045;42.682;23.294;2023-05-29T08:21:21;2.03;;;1.63;;
11970;SDS011;6045;42.682;23.294;2023-05-29T08:23:48;2.13;;;1.90;;
11970;SDS011;6045;42.682;23.294;2023-05-29T08:26:14;1.50;;;1.40;;
11970;SDS011;6045;42.682;23.294;2023-05-29T08:28:41;1.30;;;1.20;;
11970;SDS011;6045;42.682;23.294;2023-05-29T08:31:08;1.58;;;1.40;;
11970;SDS011;6045;42.682;23.294;2023-05-29T08:33:34;1.83;;;1.35;;
11970;SDS011;6045;42.682;23.294;2023-05-29T08:36:03;1.77;;;1.33;;
11970;SDS011;6045;42.682;23.294;2023-05-29T08:38:30;1.67;;;1.48;;
11970;SDS011;6045;42.682;23.294;2023-05-29T08:40:57;2.83;;;1.52;;
11970;SDS011;6045;42.682;23.294;2023-05-29T08:43:24;2.30;;;1.90;;
11970;SDS011;6045;42.682;23.294;2023-05-29T08:45:56;1.85;;;1.35;;
11970;SDS011;6045;42.682;23.294;2023-05-29T08:48:27;1.85;;;1.55;;
11970;SDS011;6045;42.682;23.294;2023-05-29T08:50:55;2.75;;;1.80;;
11970;SDS011;6045;42.682;23.294;2023-05-29T08:53:24;1.88;;;1.60;;
11970;SDS011;6045;42.682;23.294;2023-05-29T08:55:51;1.75;;;1.60;;
11970;SDS011;6045;42.682;23.294;2023-05-29T08:58:21;3.05;;;1.60;;
11970;SDS011;6045;42.682;23.294;2023-05-29T09:00:48;3.20;;;1.63;;
11970;SDS011;6045;42.682;23.294;2023-05-29T09:03:15;2.28;;;1.65;;
11970;SDS011;6045;42.682;23.294;2023-05-29T09:05:42;1.88;;;1.77;;
11970;SDS011;6045;42.682;23.294;2023-05-29T09:08:10;2.00;;;1.58;;
11970;SDS011;6045;42.682;23.294;2023-05-29T09:10:39;2.20;;;1.85;;
11970;SDS011;6045;42.682;23.294;2023-05-29T09:13:07;1.73;;;1.63;;
11970;SDS011;6045;42.682;23.294;2023-05-29T09:15:35;2.55;;;1.58;;
11970;SDS011;6045;42.682;23.294;2023-05-29T09:18:03;1.75;;;1.63;;
11970;SDS011;6045;42.682;23.294;2023-05-29T09:20:30;2.22;;;1.60;;
11970;SDS011;6045;42.682;23.294;2023-05-29T09:22:58;1.88;;;1.77;;
11970;SDS011;6045;42.682;23.294;2023-05-29T09:25:28;2.78;;;1.90;;
11970;SDS011;6045;42.682;23.294;2023-05-29T09:27:59;2.22;;;1.83;;
11970;SDS011;6045;42.682;23.294;2023-05-29T09:30:30;1.60;;;1.50;;
11970;SDS011;6045;42.682;23.294;2023-05-29T09:32:59;2.15;;;1.70;;
11970;SDS011;6045;42.682;23.294;2023-05-29T09:35:27;2.40;;;1.75;;
11970;SDS011;6045;42.682;23.294;2023-05-29T09:37:59;2.58;;;1.48;;
11970;SDS011;6045;42.682;23.294;2023-05-29T09:40:26;3.75;;;2.08;;
11970;SDS011;6045;42.682;23.294;2023-05-29T09:42:52;1.98;;;1.63;;
11970;SDS011;6045;42.682;23.294;2023-05-29T09:45:21;2.05;;;1.80;;
11970;SDS011;6045;42.682;23.294;2023-05-29T09:47:50;1.90;;;1.75;;
11970;SDS011;6045;42.682;23.294;2023-05-29T09:50:18;3.53;;;1.90;;
11970;SDS011;6045;42.682;23.294;2023-05-29T09:52:46;1.80;;;1.52;;
11970;SDS011;6045;42.682;23.294;2023-05-29T09:55:17;2.03;;;1.85;;
11970;SDS011;6045;42.682;23.294;2023-05-29T09:57:46;2.35;;;1.60;;
11970;SDS011;6045;42.682;23.294;2023-05-29T10:00:14;2.22;;;1.95;;
11970;SDS011;6045;42.682;23.294;2023-05-29T10:02:44;2.30;;;1.67;;
11970;SDS011;6045;42.682;23.294;2023-05-29T10:05:11;2.70;;;1.60;;
11970;SDS011;6045;42.682;23.294;2023-05-29T10:07:42;2.35;;;1.70;;
11970;SDS011;6045;42.682;23.294;2023-05-29T10:10:11;1.98;;;1.77;;
11970;SDS011;6045;42.682;23.294;2023-05-29T10:12:40;3.67;;;2.17;;
11970;SDS011;6045;42.682;23.294;2023-05-29T10:15:11;3.17;;;2.20;;
11970;SDS011;6045;42.682;23.294;2023-05-29T10:17:39;4.03;;;2.20;;
11970;SDS011;6045;42.682;23.294;2023-05-29T10:20:15;2.53;;;1.80;;
11970;SDS011;6045;42.682;23.294;2023-05-29T10:22:44;2.08;;;1.92;;
11970;SDS011;6045;42.682;23.294;2023-05-29T10:25:13;2.10;;;1.90;;
11970;SDS011;6045;42.682;23.294;2023-05-29T10:27:43;2.42;;;2.15;;
11970;SDS011;6045;42.682;23.294;2023-05-29T10:30:11;3.00;;;1.98;;
11970;SDS011;6045;42.682;23.294;2023-05-29T10:32:52;2.63;;;1.63;;
11970;SDS011;6045;42.682;23.294;2023-05-29T10:35:35;2.83;;;1.75;;
11970;SDS011;6045;42.682;23.294;2023-05-29T10:38:10;2.33;;;2.03;;
11970;SDS011;6045;42.682;23.294;2023-05-29T10:40:38;3.50;;;2.00;;
11970;SDS011;6045;42.682;23.294;2023-05-29T10:43:08;2.10;;;1.38;;
11970;SDS011;6045;42.682;23.294;2023-05-29T10:45:55;2.08;;;1.80;;
11970;SDS011;6045;42.682;23.294;2023-05-29T10:48:42;2.25;;;1.45;;
11970;SDS011;6045;42.682;23.294;2023-05-29T10:51:23;1.80;;;1.50;;
11970;SDS011;6045;42.682;23.294;2023-05-29T10:53:52;2.65;;;1.80;;
11970;SDS011;6045;42.682;23.294;2023-05-29T10:56:23;3.83;;;1.70;;
11970;SDS011;6045;42.682;23.294;2023-05-29T10:58:54;2.17;;;1.98;;
11970;SDS011;6045;42.682;23.294;2023-05-29T11:01:22;3.08;;;1.90;;
11970;SDS011;6045;42.682;23.294;2023-05-29T11:03:53;1.88;;;1.63;;
11970;SDS011;6045;42.682;23.294;2023-05-29T11:06:40;2.75;;;1.98;;
11970;SDS011;6045;42.682;23.294;2023-05-29T11:09:07;3.10;;;1.95;;
11970;SDS011;6045;42.682;23.294;2023-05-29T11:14:44;2.95;;;2.20;;
11970;SDS011;6045;42.682;23.294;2023-05-29T11:20:00;3.30;;;2.17;;
11970;SDS011;6045;42.682;23.294;2023-05-29T11:22:32;3.00;;;2.10;;
11970;SDS011;6045;42.682;23.294;2023-05-29T11:25:09;4.63;;;2.20;;
11970;SDS011;6045;42.682;23.294;2023-05-29T11:27:37;2.42;;;1.65;;
11970;SDS011;6045;42.682;23.294;2023-05-29T11:30:04;2.50;;;1.90;;
11970;SDS011;6045;42.682;23.294;2023-05-29T11:32:31;2.22;;;2.00;;
11970;SDS011;6045;42.682;23.294;2023-05-29T11:35:05;2.10;;;1.90;;
11970;SDS011;6045;42.682;23.294;2023-05-29T11:37:34;2.38;;;2.15;;
11970;SDS011;6045;42.682;23.294;2023-05-29T11:40:02;2.85;;;2.30;;
11970;SDS011;6045;42.682;23.294;2023-05-29T11:42:30;2.83;;;2.35;;
11970;SDS011;6045;42.682;23.294;2023-05-29T11:45:09;2.03;;;1.83;;
11970;SDS011;6045;42.682;23.294;2023-05-29T11:47:49;3.67;;;2.47;;
11970;SDS011;6045;42.682;23.294;2023-05-29T11:50:19;2.30;;;2.10;;
11970;SDS011;6045;42.682;23.294;2023-05-29T11:52:46;3.08;;;1.88;;
11970;SDS011;6045;42.682;23.294;2023-05-29T11:55:13;2.20;;;2.00;;
11970;SDS011;6045;42.682;23.294;2023-05-29T11:57:40;3.90;;;1.90;;
11970;SDS011;6045;42.682;23.294;2023-05-29T12:00:07;3.53;;;2.47;;
11970;SDS011;6045;42.682;23.294;2023-05-29T12:02:35;4.28;;;1.75;;
11970;SDS011;6045;42.682;23.294;2023-05-29T12:05:02;2.75;;;2.08;;
11970;SDS011;6045;42.682;23.294;2023-05-29T12:07:33;2.65;;;2.10;;
11970;SDS011;6045;42.682;23.294;2023-05-29T12:10:08;2.55;;;2.30;;
11970;SDS011;6045;42.682;23.294;2023-05-29T12:12:35;3.25;;;2.03;;
11970;SDS011;6045;42.682;23.294;2023-05-29T12:15:02;1.95;;;1.73;;
11970;SDS011;6045;42.682;23.294;2023-05-29T12:17:31;2.83;;;1.63;;
11970;SDS011;6045;42.682;23.294;2023-05-29T12:19:58;2.80;;;1.95;;
11970;SDS011;6045;42.682;23.294;2023-05-29T12:22:36;2.72;;;2.10;;
11970;SDS011;6045;42.682;23.294;2023-05-29T12:25:07;2.38;;;1.90;;
11970;SDS011;6045;42.682;23.294;2023-05-29T12:27:37;3.15;;;2.30;;
11970;SDS011;6045;42.682;23.294;2023-05-29T12:30:08;8.20;;;3.05;;
11970;SDS011;6045;42.682;23.294;2023-05-29T12:32:36;3.53;;;2.55;;
11970;SDS011;6045;42.682;23.294;2023-05-29T12:35:11;4.03;;;2.83;;
11970;SDS011;6045;42.682;23.294;2023-05-29T12:37:44;3.85;;;2.50;;
11970;SDS011;6045;42.682;23.294;2023-05-29T12:40:15;3.58;;;1.98;;
11970;SDS011;6045;42.682;23.294;2023-05-29T12:42:43;3.33;;;1.95;;
11970;SDS011;6045;42.682;23.294;2023-05-29T12:45:10;4.55;;;2.17;;
11970;SDS011;6045;42.682;23.294;2023-05-29T12:47:37;2.30;;;1.92;;
11970;SDS011;6045;42.682;23.294;2023-05-29T12:50:20;3.08;;;2.50;;
11970;SDS011;6045;42.682;23.294;2023-05-29T12:53:00;3.85;;;2.72;;
11970;SDS011;6045;42.682;23.294;2023-05-29T12:55:27;3.03;;;2.33;;
11970;SDS011;6045;42.682;23.294;2023-05-29T12:57:55;4.90;;;2.40;;
11970;SDS011;6045;42.682;23.294;2023-05-29T13:00:23;4.55;;;2.50;;
11970;SDS011;6045;42.682;23.294;2023-05-29T13:02:49;3.72;;;2.65;;
11970;SDS011;6045;42.682;23.294;2023-05-29T13:05:16;4.18;;;2.40;;
11970;SDS011;6045;42.682;23.294;2023-05-29T13:07:44;3.47;;;2.60;;
11970;SDS011;6045;42.682;23.294;2023-05-29T13:10:14;3.97;;;2.63;;
11970;SDS011;6045;42.682;23.294;2023-05-29T13:12:41;3.90;;;2.90;;
11970;SDS011;6045;42.682;23.294;2023-05-29T13:15:09;4.80;;;2.75;;
11970;SDS011;6045;42.682;23.294;2023-05-29T13:17:37;3.00;;;1.80;;
11970;SDS011;6045;42.682;23.294;2023-05-29T13:20:06;3.00;;;1.80;;
11970;SDS011;6045;42.682;23.294;2023-05-29T13:22:35;2.83;;;2.00;;
11970;SDS011;6045;42.682;23.294;2023-05-29T13:25:02;3.30;;;2.22;;
11970;SDS011;6045;42.682;23.294;2023-05-29T13:27:32;2.20;;;1.95;;
11970;SDS011;6045;42.682;23.294;2023-05-29T13:30:03;2.88;;;2.20;;
11970;SDS011;6045;42.682;23.294;2023-05-29T13:32:30;3.67;;;2.35;;
11970;SDS011;6045;42.682;23.294;2023-05-29T13:34:57;4.00;;;2.67;;
11970;SDS011;6045;42.682;23.294;2023-05-29T13:37:24;2.15;;;1.92;;
11970;SDS011;6045;42.682;23.294;2023-05-29T13:39:52;4.50;;;1.92;;
11970;SDS011;6045;42.682;23.294;2023-05-29T13:42:19;2.15;;;1.95;;
11970;SDS011;6045;42.682;23.294;2023-05-29T13:44:47;4.13;;;2.08;;
11970;SDS011;6045;42.682;23.294;2023-05-29T13:47:14;4.43;;;2.17;;
11970;SDS011;6045;42.682;23.294;2023-05-29T13:49:42;3.55;;;2.10;;
11970;SDS011;6045;42.682;23.294;2023-05-29T13:52:09;2.35;;;1.73;;
11970;SDS011;6045;42.682;23.294;2023-05-29T13:54:36;3.05;;;1.70;;
11970;SDS011;6045;42.682;23.294;2023-05-29T13:57:02;2.17;;;1.65;;
11970;SDS011;6045;42.682;23.294;2023-05-29T13:59:30;3.08;;;2.03;;
11970;SDS011;6045;42.682;23.294;2023-05-29T14:01:58;2.05;;;1.40;;
11970;SDS011;6045;42.682;23.294;2023-05-29T14:04:25;4.00;;;2.05;;
11970;SDS011;6045;42.682;23.294;2023-05-29T14:06:52;5.30;;;2.60;;
11970;SDS011;6045;42.682;23.294;2023-05-29T14:09:19;3.08;;;2.20;;
11970;SDS011;6045;42.682;23.294;2023-05-29T14:11:52;1.67;;;1.33;;
11970;SDS011;6045;42.682;23.294;2023-05-29T14:14:19;2.38;;;1.10;;
11970;SDS011;6045;42.682;23.294;2023-05-29T14:16:46;1.50;;;1.10;;
11970;SDS011;6045;42.682;23.294;2023-05-29T14:19:14;1.50;;;1.10;;
11970;SDS011;6045;42.682;23.294;2023-05-29T14:21:41;2.15;;;1.42;;
11970;SDS011;6045;42.682;23.294;2023-05-29T14:24:07;0.90;;;0.85;;
11970;SDS011;6045;42.682;23.294;2023-05-29T14:26:34;0.85;;;0.85;;
11970;SDS011;6045;42.682;23.294;2023-05-29T14:29:01;1.45;;;1.02;;
11970;SDS011;6045;42.682;23.294;2023-05-29T14:31:28;1.77;;;1.48;;
11970;SDS011;6045;42.682;23.294;2023-05-29T14:33:55;0.77;;;0.77;;
11970;SDS011;6045;42.682;23.294;2023-05-29T14:36:23;1.77;;;1.10;;
11970;SDS011;6045;42.682;23.294;2023-05-29T14:38:50;1.48;;;1.30;;
11970;SDS011;6045;42.682;23.294;2023-05-29T14:41:17;2.38;;;1.30;;
11970;SDS011;6045;42.682;23.294;2023-05-29T14:43:43;1.13;;;1.02;;
11970;SDS011;6045;42.682;23.294;2023-05-29T14:46:10;1.48;;;1.33;;
11970;SDS011;6045;42.682;23.294;2023-05-29T14:48:38;1.40;;;1.23;;
11970;SDS011;6045;42.682;23.294;2023-05-29T14:51:04;2.05;;;1.17;;
11970;SDS011;6045;42.682;23.294;2023-05-29T14:53:33;1.50;;;1.17;;
11970;SDS011;6045;42.682;23.294;2023-05-29T14:55:59;1.85;;;1.10;;
11970;SDS011;6045;42.682;23.294;2023-05-29T14:58:26;2.10;;;1.35;;
11970;SDS011;6045;42.682;23.294;2023-05-29T15:00:53;2.30;;;1.35;;
11970;SDS011;6045;42.682;23.294;2023-05-29T15:03:20;2.80;;;1.52;;
11970;SDS011;6045;42.682;23.294;2023-05-29T15:05:51;1.30;;;1.10;;
11970;SDS011;6045;42.682;23.294;2023-05-29T15:08:18;2.40;;;1.20;;
11970;SDS011;6045;42.682;23.294;2023-05-29T15:10:46;2.38;;;1.45;;